Impacts METAR Board
IDs:

KISM - Kissimmee Muni, FL, US

Updated at: 1900 UTC 02 Oct 2022
Potential Impact None Slight Moderate High
Time 02/07Z 02/08Z 02/09Z 02/10Z 02/11Z 02/12Z 02/13Z 02/14Z 02/15Z 02/16Z 02/17Z 02/18Z 02/19Z
Temp67 68 66 66 65 67 72 77 79 81 84 86 86
Dewpt64 64 64 64 64 65 66 66 65 62 58 57 59
Altim29.92 29.91 29.90 29.91 29.93 29.94 29.96 29.96 29.96 29.96 29.94 29.92 29.90
VIS10 10 10 10 10 10 10 10 10 10 10 10 10
CIG-- -- -- -- -- -- -- -- -- -- -- -- --
CoverCLRCLRCLRCLRCLRCLRCLRCLRCLRCLRCLRCLRCLR
FltCatVFRVFRVFRVFRVFRVFRVFRVFRVFRVFRVFRVFRVFR
WX--------------------------
WDir320300000320310290330330330320
WSpd4 3 0 0 0 6 9 9 9 9 10 7
WGst-- -- -- -- -- -- -- -- -- -- -- -- --
Raw hourly METARs
KISM 020656Z AUTO 32004KT 10SM CLR 19/18 A2992 RMK AO2 SLP132 T01940178 PNO $
KISM 020756Z AUTO 30003KT 10SM CLR 20/18 A2991 RMK AO2 SLP127 T02000178 PNO $
KISM 020856Z AUTO 00000KT 10SM CLR 19/18 A2990 RMK AO2 SLP126 6//// T01890178 56010 PNO $
KISM 020956Z AUTO 00000KT 10SM CLR 19/18 A2991 RMK AO2 SLP128 T01890178 PNO $
KISM 021056Z 00000KT 10SM CLR 18/18 A2993 RMK AO2 SLP135 T01830178 PNO $
KISM 021156Z 10SM CLR 19/18 A2994 RMK AO2 SLP139 6//// 7//// T01940183 10211 20183 53013 PNO $
KISM 021256Z 32006KT 10SM CLR 22/19 A2996 RMK AO2 SLP143 T02220189 PNO $
KISM 021356Z 31009KT 10SM CLR 25/19 A2996 RMK AO2 SLP145 T02500189 PNO $
KISM 021456Z 29009KT 10SM CLR 26/18 A2996 RMK AO2 SLP145 6//// T02610183 50006 PNO $
KISM 021556Z 33009KT 10SM CLR 27/17 A2996 RMK AO2 SLP143 T02720167 PNO $
KISM 021656Z 33009KT 10SM CLR 29/14 A2994 RMK AO2 SLP139 T02890144 PNO $
KISM 021756Z 33010KT 10SM CLR 30/14 A2992 RMK AO2 SLP131 6//// T03000139 10300 20194 58013 PNO $
KISM 021856Z 32007KT 10SM CLR 30/15 A2990 RMK AO2 SLP123 T03000150 PNO $



Page loaded:  19:56 UTC  |   12:56 PM Pacific  |   01:56 PM Mountain  |   02:56 PM Central  |   03:56 PM Eastern

 

ADVISORIES

FORECASTS

FORECASTS

OBSERVATIONS

USER TOOLS

ABOUT US